createdAt,value
2023-04-23T00:00:06.757Z,5.8
2023-04-23T00:05:07.183Z,5.2
2023-04-23T00:10:06.521Z,5.9
2023-04-23T00:15:06.483Z,5.3
2023-04-23T00:20:06.740Z,5.9
2023-04-23T00:25:06.958Z,8
2023-04-23T00:30:07.168Z,6.6
2023-04-23T00:35:07.193Z,6.5
2023-04-23T00:40:06.302Z,5.4
2023-04-23T00:45:06.361Z,5.7
2023-04-23T00:50:06.517Z,7.8
2023-04-23T00:55:06.761Z,5.9
2023-04-23T01:00:06.917Z,6.7
2023-04-23T01:05:06.543Z,6.1
2023-04-23T01:10:06.826Z,5.7
2023-04-23T01:15:06.943Z,5.1
2023-04-23T01:20:07.026Z,6.3
2023-04-23T01:25:07.162Z,6.4
2023-04-23T01:30:06.565Z,6.7
2023-04-23T01:35:06.891Z,5.2
2023-04-23T01:40:07.080Z,6.8
2023-04-23T01:45:07.190Z,6.8
2023-04-23T01:50:06.286Z,6.6
2023-04-23T01:55:06.468Z,6.2
2023-04-23T02:00:06.526Z,5.4
2023-04-23T02:05:06.270Z,5.7
2023-04-23T02:10:06.628Z,5.7
2023-04-23T02:15:06.963Z,4.9
2023-04-23T02:20:07.008Z,5.3
2023-04-23T02:25:07.090Z,5.5
2023-04-23T02:30:07.260Z,4.7
2023-04-23T02:35:06.519Z,5.4
2023-04-23T02:40:06.783Z,6.3
2023-04-23T02:45:06.926Z,5.4
2023-04-23T02:50:07.191Z,5.5
2023-04-23T02:55:06.434Z,5.7
2023-04-23T03:00:06.759Z,5
2023-04-23T03:05:06.457Z,4.8
2023-04-23T03:10:06.530Z,6
2023-04-23T03:15:06.847Z,5
2023-04-23T03:20:07.077Z,6.1
2023-04-23T03:25:07.069Z,6.1
2023-04-23T03:30:07.126Z,6.5
2023-04-23T03:35:07.033Z,6.3
2023-04-23T03:40:07.169Z,5.2
2023-04-23T03:45:07.141Z,5.9
2023-04-23T03:50:06.459Z,5.5
2023-04-23T03:55:06.604Z,5.2
2023-04-23T04:00:06.843Z,5.9
2023-04-23T04:05:07.117Z,7.3
2023-04-23T04:10:06.481Z,4.8
2023-04-23T04:15:06.653Z,7.1
2023-04-23T04:20:06.699Z,5.4
2023-04-23T04:25:06.794Z,6.2
2023-04-23T04:30:06.845Z,5.9
2023-04-23T04:35:06.961Z,5.8
2023-04-23T04:40:07.025Z,6.7
2023-04-23T04:45:07.227Z,5.8
2023-04-23T04:50:06.447Z,8
2023-04-23T04:55:06.478Z,5.9
2023-04-23T05:00:06.637Z,8.1
2023-04-23T05:05:07.106Z,7.1
2023-04-23T05:10:06.300Z,6.2
2023-04-23T05:15:06.493Z,7.3
2023-04-23T05:20:06.656Z,8.4
2023-04-23T05:25:06.877Z,6.5
2023-04-23T05:30:06.844Z,7.1
2023-04-23T05:35:07.005Z,5.7
2023-04-23T05:40:06.363Z,5.1
2023-04-23T05:45:06.642Z,5.9
2023-04-23T05:50:06.963Z,7.3
2023-04-23T05:55:07.223Z,6.1
2023-04-23T06:00:06.441Z,5.4
2023-04-23T06:05:06.946Z,5.3
2023-04-23T06:10:07.173Z,6
2023-04-23T06:15:06.352Z,5.3
2023-04-23T06:20:06.516Z,5.1
2023-04-23T06:25:06.757Z,5.1
2023-04-23T06:30:07.104Z,3.3
2023-04-23T06:35:07.093Z,4.6
2023-04-23T06:40:07.201Z,3.2
2023-04-23T06:45:06.420Z,4.2
2023-04-23T06:50:06.508Z,4.1
2023-04-23T06:55:06.825Z,3.6
2023-04-23T07:00:07.212Z,3.3
2023-04-23T07:05:06.745Z,3
2023-04-23T07:10:07.366Z,3.8
2023-04-23T07:15:07.113Z,3.6
2023-04-23T07:20:06.400Z,2.8
2023-04-23T07:25:06.430Z,3.7
2023-04-23T07:30:06.551Z,2.5
2023-04-23T07:35:06.531Z,3.8
2023-04-23T07:40:06.868Z,3.4
2023-04-23T07:45:07.033Z,3.7
2023-04-23T07:50:07.090Z,3.3
2023-04-23T07:55:06.366Z,2.8
2023-04-23T08:00:06.590Z,3.1
2023-04-23T08:05:06.892Z,3.3
2023-04-23T08:10:07.203Z,3.3
2023-04-23T08:15:06.320Z,3.4
2023-04-23T08:20:06.603Z,3.7
2023-04-23T08:25:06.809Z,4.3
2023-04-23T08:30:06.887Z,4.3
2023-04-23T08:35:07.087Z,2.7
2023-04-23T08:40:06.448Z,3.3
2023-04-23T08:45:07.116Z,3.3
2023-04-23T08:50:06.703Z,3.5
2023-04-23T08:55:07.215Z,2.7
2023-04-23T09:00:06.504Z,3.1
2023-04-23T09:05:06.942Z,3.5
2023-04-23T09:10:07.054Z,3.8
2023-04-23T09:15:06.252Z,2.7
2023-04-23T09:20:06.391Z,3
2023-04-23T09:25:06.550Z,3.9
2023-04-23T09:30:06.607Z,4.1
2023-04-23T09:35:06.269Z,3.8
2023-04-23T09:40:06.531Z,4.3
2023-04-23T09:45:06.505Z,3.1
2023-04-23T09:50:06.719Z,3.7
2023-04-23T09:55:07.021Z,4.1
2023-04-23T10:00:06.403Z,4.6
2023-04-23T10:05:06.704Z,4.5
2023-04-23T10:10:06.412Z,3.5
2023-04-23T10:15:07.134Z,4
2023-04-23T10:20:07.261Z,3.7
2023-04-23T10:25:06.475Z,4.4
2023-04-23T10:30:06.568Z,4.5
2023-04-23T10:35:06.553Z,3.6
2023-04-23T10:40:06.803Z,5.1
2023-04-23T10:45:06.916Z,4.3
2023-04-23T10:50:07.066Z,3.5
2023-04-23T10:55:06.280Z,4.9
2023-04-23T11:00:06.475Z,5.2
2023-04-23T11:05:07.205Z,6.3
2023-04-23T11:10:06.319Z,4.9
2023-04-23T11:15:06.329Z,4.5
2023-04-23T11:20:06.591Z,7.1
2023-04-23T11:25:06.790Z,5.7
2023-04-23T11:30:06.948Z,5.1
2023-04-23T11:35:07.103Z,4.4
2023-04-23T11:40:07.228Z,3.6
2023-04-23T11:45:06.375Z,4.3
2023-04-23T11:50:06.474Z,3.4
2023-04-23T11:55:06.679Z,4
2023-04-23T12:00:07.199Z,3.2
2023-04-23T12:05:06.485Z,3.6
2023-04-23T12:10:07.079Z,3.6
2023-04-23T12:15:06.907Z,3.4
2023-04-23T12:20:07.022Z,3.3
2023-04-23T12:25:06.280Z,4.2
2023-04-23T12:30:06.485Z,3.4
2023-04-23T12:35:06.338Z,3.9
2023-04-23T12:40:06.681Z,3.2
2023-04-23T12:45:06.872Z,3.5
2023-04-23T12:50:07.217Z,4.2
2023-04-23T12:55:06.413Z,3.4
2023-04-23T13:00:06.695Z,4.4
2023-04-23T13:05:07.148Z,4.2
2023-04-23T13:10:07.186Z,3.2
2023-04-23T13:15:06.496Z,4
2023-04-23T13:20:06.585Z,3.8
2023-04-23T13:25:06.696Z,4.7
2023-04-23T13:30:07.188Z,3.7
2023-04-23T13:35:06.419Z,6.6
2023-04-23T13:40:06.692Z,4
2023-04-23T13:45:06.804Z,3.6
2023-04-23T13:50:06.925Z,2.7
2023-04-23T13:55:07.167Z,4.6
2023-04-23T14:00:06.430Z,4.4
2023-04-23T14:05:06.721Z,5.2
2023-04-23T14:10:06.843Z,3.7
2023-04-23T14:15:06.888Z,4.6
2023-04-23T14:20:07.119Z,4.1
2023-04-23T14:25:07.055Z,3.8
2023-04-23T14:30:07.234Z,4.9
2023-04-23T14:35:06.443Z,4.1
2023-04-23T14:40:07.110Z,3.8
2023-04-23T14:45:06.332Z,4
2023-04-23T14:50:06.377Z,5
2023-04-23T14:55:06.507Z,4.3
2023-04-23T15:00:06.848Z,6.3
2023-04-23T15:05:07.136Z,9.1
2023-04-23T15:10:06.291Z,10.8
2023-04-23T15:15:06.854Z,11.5
2023-04-23T15:20:06.517Z,10.6
2023-04-23T15:25:06.617Z,9.4
2023-04-23T15:30:06.607Z,10.4
2023-04-23T15:35:06.748Z,8.5
2023-04-23T15:40:06.805Z,8.4
2023-04-23T15:45:06.980Z,9.5
2023-04-23T15:50:07.181Z,7.8
2023-04-23T15:55:06.270Z,6.1
2023-04-23T16:00:06.628Z,6.3
2023-04-23T16:05:06.738Z,5.7
2023-04-23T16:10:06.746Z,6.8
2023-04-23T16:15:06.765Z,6.9
2023-04-23T16:20:06.953Z,6
2023-04-23T16:25:07.078Z,5.2
2023-04-23T16:30:07.239Z,5.2
2023-04-23T16:35:06.413Z,3.9
2023-04-23T16:40:06.529Z,5
2023-04-23T16:45:06.666Z,4.3
2023-04-23T16:50:06.727Z,16
2023-04-23T16:55:07.092Z,6.6
2023-04-23T17:00:06.366Z,7.2
2023-04-23T17:05:06.879Z,9.3
2023-04-23T17:10:07.160Z,7.3
2023-04-23T17:15:06.320Z,14.1
2023-04-23T17:20:06.467Z,9.4
2023-04-23T17:25:06.581Z,7.1
2023-04-23T17:30:06.642Z,6.6
2023-04-23T17:35:06.676Z,8.2
2023-04-23T17:40:06.744Z,15.4
2023-04-23T17:45:07.100Z,18.5
2023-04-23T17:50:07.085Z,16.8
2023-04-23T17:55:07.156Z,14
2023-04-23T18:00:06.426Z,13.8
2023-04-23T18:05:06.867Z,13.7
2023-04-23T18:10:07.008Z,13.1
2023-04-23T18:15:07.197Z,13.2
2023-04-23T18:20:06.437Z,12.7
2023-04-23T18:25:06.434Z,15.1
2023-04-23T18:30:06.532Z,12
2023-04-23T18:35:06.596Z,11.2
2023-04-23T18:40:06.747Z,16
2023-04-23T18:45:07.020Z,11.6
2023-04-23T18:50:06.274Z,9.4
2023-04-23T18:55:06.897Z,9.2
2023-04-23T19:00:07.159Z,9.9
2023-04-23T19:05:06.514Z,9.3
2023-04-23T19:10:06.649Z,10.6
2023-04-23T19:15:06.751Z,12.2
2023-04-23T19:20:06.956Z,12.1
2023-04-23T19:25:07.121Z,11.6
2023-04-23T19:30:07.260Z,11.4
2023-04-23T19:35:06.393Z,14.7
2023-04-23T19:40:06.495Z,13.7
2023-04-23T19:45:06.473Z,13.9
2023-04-23T19:50:06.515Z,11.2
2023-04-23T19:55:06.602Z,12.2
2023-04-23T20:00:06.761Z,12.2
2023-04-23T20:05:07.114Z,11.5
2023-04-23T20:10:06.260Z,12.3
2023-04-23T20:15:06.389Z,10.9
2023-04-23T20:20:06.540Z,11.7
2023-04-23T20:25:06.737Z,10.5
2023-04-23T20:30:06.808Z,8
2023-04-23T20:35:06.916Z,8.3
2023-04-23T20:40:06.965Z,9.1
2023-04-23T20:45:06.240Z,9.3
2023-04-23T20:50:06.453Z,8.9
2023-04-23T20:55:06.596Z,10.1
2023-04-23T21:00:06.935Z,10.7
2023-04-23T21:05:07.126Z,14.6
2023-04-23T21:10:06.414Z,11.6
2023-04-23T21:15:06.527Z,11.6
2023-04-23T21:20:06.568Z,10.7
2023-04-23T21:25:06.669Z,10.4
2023-04-23T21:30:06.728Z,12
2023-04-23T21:35:06.941Z,10.2
2023-04-23T21:40:07.066Z,10
2023-04-23T21:45:06.326Z,9.3
2023-04-23T21:50:06.596Z,12
2023-04-23T21:55:06.728Z,12.9
2023-04-23T22:00:07.119Z,8.3
2023-04-23T22:05:06.333Z,10.6
2023-04-23T22:10:06.653Z,9.2
2023-04-23T22:15:06.727Z,8.6
2023-04-23T22:20:06.989Z,9.3
2023-04-23T22:25:06.977Z,9.4
2023-04-23T22:30:07.153Z,9.2
2023-04-23T22:35:06.278Z,11
2023-04-23T22:40:06.504Z,12.2
2023-04-23T22:45:06.619Z,9
2023-04-23T22:50:06.767Z,8.8
2023-04-23T22:55:06.959Z,9.4
2023-04-23T23:00:07.181Z,9.8
2023-04-23T23:05:06.988Z,16.3
2023-04-23T23:10:07.194Z,8.4
2023-04-23T23:15:06.609Z,8.7
2023-04-23T23:20:06.790Z,8.6
2023-04-23T23:25:06.541Z,9.7
2023-04-23T23:30:06.659Z,8.8
2023-04-23T23:35:06.734Z,7.6
2023-04-23T23:40:07.058Z,10.5
2023-04-23T23:45:06.967Z,11.1
2023-04-23T23:50:07.009Z,10.6
2023-04-23T23:55:07.143Z,8.7
